createdAt,value
2022-08-07T00:00:18.749Z,26.72
2022-08-07T00:02:47.856Z,26.72
2022-08-07T00:05:15.317Z,26.74
2022-08-07T00:07:42.476Z,26.73
2022-08-07T00:10:25.991Z,26.70
2022-08-07T00:12:59.816Z,26.67
2022-08-07T00:15:38.343Z,26.66
2022-08-07T00:18:19.686Z,26.64
2022-08-07T00:20:49.603Z,26.63
2022-08-07T00:23:17.838Z,26.66
2022-08-07T00:25:52.444Z,26.67
2022-08-07T00:28:33.764Z,26.66
2022-08-07T00:31:06.415Z,26.67
2022-08-07T00:33:41.290Z,26.69
2022-08-07T00:36:09.744Z,26.69
2022-08-07T00:38:39.025Z,26.67
2022-08-07T00:41:10.070Z,26.65
2022-08-07T00:44:00.916Z,26.62
2022-08-07T00:46:30.977Z,26.60
2022-08-07T00:49:03.297Z,26.60
2022-08-07T00:51:57.503Z,26.62
2022-08-07T00:54:19.955Z,26.58
2022-08-07T00:56:49.750Z,26.59
2022-08-07T00:59:32.323Z,26.59
2022-08-07T01:02:03.060Z,26.60
2022-08-07T01:04:37.458Z,26.61
2022-08-07T01:07:11.133Z,26.59
2022-08-07T01:10:06.398Z,26.61
2022-08-07T01:12:29.766Z,26.64
2022-08-07T01:15:01.772Z,26.65
2022-08-07T01:17:33.427Z,26.62
2022-08-07T01:20:16.638Z,26.60
2022-08-07T01:22:47.081Z,26.57
2022-08-07T01:25:54.230Z,26.55
2022-08-07T01:28:17.274Z,26.53
2022-08-07T01:30:51.364Z,26.51
2022-08-07T01:33:22.498Z,26.49
2022-08-07T01:35:54.316Z,26.51
2022-08-07T01:38:36.254Z,26.51
2022-08-07T01:41:13.807Z,26.52
2022-08-07T01:43:55.335Z,26.54
2022-08-07T01:46:22.727Z,26.55
2022-08-07T01:48:51.011Z,26.53
2022-08-07T01:52:01.560Z,26.52
2022-08-07T01:54:33.111Z,26.49
2022-08-07T01:57:24.353Z,26.47
2022-08-07T02:00:13.058Z,26.43
2022-08-07T02:03:18.524Z,26.46
2022-08-07T02:05:59.378Z,26.43
2022-08-07T02:08:29.694Z,26.41
2022-08-07T02:10:59.775Z,26.39
2022-08-07T02:13:58.193Z,26.33
2022-08-07T02:16:28.569Z,26.29
2022-08-07T02:20:06.624Z,26.28
2022-08-07T02:21:58.570Z,26.26
2022-08-07T02:24:29.297Z,26.23
2022-08-07T02:27:01.188Z,26.19
2022-08-07T02:29:34.385Z,26.19
2022-08-07T02:32:05.747Z,26.20
2022-08-07T02:34:51.110Z,26.23
2022-08-07T02:37:21.139Z,26.26
2022-08-07T02:40:02.008Z,26.28
2022-08-07T02:42:38.866Z,26.29
2022-08-07T02:45:20.670Z,26.27
2022-08-07T02:47:59.842Z,26.24
2022-08-07T02:50:37.003Z,26.18
2022-08-07T02:53:10.882Z,26.15
2022-08-07T02:56:02.451Z,26.10
2022-08-07T02:58:35.200Z,26.03
2022-08-07T03:01:06.299Z,26.00
2022-08-07T03:03:49.683Z,25.96
2022-08-07T03:06:26.104Z,25.96
2022-08-07T03:09:02.658Z,25.93
2022-08-07T03:11:32.967Z,25.91
2022-08-07T03:14:07.749Z,25.89
2022-08-07T03:16:36.231Z,25.87
2022-08-07T03:19:08.374Z,25.84
2022-08-07T03:21:37.497Z,25.81
2022-08-07T03:24:19.990Z,25.77
2022-08-07T03:26:58.444Z,25.71
2022-08-07T03:29:37.399Z,25.70
2022-08-07T03:32:13.146Z,25.67
2022-08-07T03:35:16.834Z,25.66
2022-08-07T03:37:54.186Z,25.64
2022-08-07T03:40:36.086Z,25.64
2022-08-07T03:43:14.799Z,25.63
2022-08-07T03:45:49.631Z,25.62
2022-08-07T03:48:22.138Z,25.62
2022-08-07T03:50:55.724Z,25.64
2022-08-07T03:54:00.557Z,25.66
2022-08-07T03:56:33.619Z,25.67
2022-08-07T03:59:10.001Z,25.64
2022-08-07T04:01:46.324Z,25.61
2022-08-07T04:04:17.978Z,25.60
2022-08-07T04:06:50.876Z,25.58
2022-08-07T04:09:23.009Z,25.57
2022-08-07T04:12:24.441Z,25.60
2022-08-07T04:14:47.761Z,25.64
2022-08-07T04:17:21.573Z,25.67
2022-08-07T04:19:54.852Z,25.73
2022-08-07T04:22:29.549Z,25.69
2022-08-07T04:25:02.046Z,25.64
2022-08-07T04:27:35.916Z,25.63
2022-08-07T04:30:35.802Z,25.62
2022-08-07T04:33:15.393Z,25.64
2022-08-07T04:35:51.116Z,25.62
2022-08-07T04:38:24.982Z,25.64
2022-08-07T04:40:56.793Z,25.65
2022-08-07T04:44:10.325Z,25.72
2022-08-07T04:46:34.731Z,25.77
2022-08-07T04:49:24.368Z,25.87
2022-08-07T04:52:08.400Z,25.96
2022-08-07T04:54:50.898Z,26.10
2022-08-07T04:58:12.004Z,26.25
2022-08-07T05:00:43.179Z,26.33
2022-08-07T05:04:00.234Z,26.35
2022-08-07T05:07:19.454Z,26.53
2022-08-07T05:10:04.848Z,27.41
2022-08-07T05:12:51.376Z,28.91
2022-08-07T05:15:27.464Z,30.84
2022-08-07T05:18:08.549Z,32.28
2022-08-07T05:20:43.935Z,33.71
2022-08-07T05:23:16.689Z,34.62
2022-08-07T05:26:10.549Z,34.52
2022-08-07T05:28:36.541Z,34.22
2022-08-07T05:31:14.643Z,33.27
2022-08-07T05:34:01.292Z,32.35
2022-08-07T05:36:35.609Z,32.22
2022-08-07T05:39:09.236Z,33.09
2022-08-07T05:42:02.238Z,34.81
2022-08-07T05:44:34.109Z,35.61
2022-08-07T05:47:18.231Z,36.95
2022-08-07T05:49:50.864Z,37.78
2022-08-07T05:52:32.405Z,38.40
2022-08-07T05:56:01.992Z,38.87
2022-08-07T05:58:16.720Z,38.76
2022-08-07T06:00:50.916Z,39.51
2022-08-07T06:03:20.456Z,39.72
2022-08-07T06:05:56.398Z,39.94
2022-08-07T06:08:30.316Z,40.19
2022-08-07T06:11:03.819Z,39.56
2022-08-07T06:14:11.417Z,39.20
2022-08-07T06:16:22.963Z,38.85
2022-08-07T06:18:57.043Z,38.34
2022-08-07T06:22:16.781Z,37.37
2022-08-07T06:24:38.566Z,38.32
2022-08-07T06:27:59.891Z,38.87
2022-08-07T06:30:32.440Z,37.61
2022-08-07T06:33:01.418Z,37.76
2022-08-07T06:35:30.648Z,38.69
2022-08-07T06:38:20.262Z,39.04
2022-08-07T06:40:52.995Z,39.27
2022-08-07T06:43:25.174Z,39.46
2022-08-07T06:46:15.670Z,40.03
2022-08-07T06:48:58.714Z,40.32
2022-08-07T06:51:33.888Z,40.10
2022-08-07T06:55:30.317Z,39.83
2022-08-07T06:56:56.349Z,38.72
2022-08-07T07:00:13.437Z,37.30
2022-08-07T07:02:54.613Z,37.60
2022-08-07T07:06:05.763Z,37.05
2022-08-07T07:08:06.921Z,35.75
2022-08-07T07:10:37.170Z,36.50
2022-08-07T07:13:14.882Z,36.82
2022-08-07T07:18:50.490Z,36.86
2022-08-07T07:22:05.373Z,36.95
2022-08-07T07:24:17.618Z,38.17
2022-08-07T07:26:49.650Z,39.25
2022-08-07T07:29:56.216Z,39.54
2022-08-07T07:32:14.603Z,37.60
2022-08-07T07:34:48.636Z,37.27
2022-08-07T07:37:43.878Z,37.51
2022-08-07T07:40:10.379Z,36.89
2022-08-07T07:42:47.146Z,37.42
2022-08-07T07:45:24.656Z,37.05
2022-08-07T07:48:13.157Z,37.36
2022-08-07T07:51:07.940Z,37.46
2022-08-07T07:53:51.801Z,36.99
2022-08-07T07:56:30.296Z,36.62
2022-08-07T07:59:03.058Z,36.95
2022-08-07T08:02:04.032Z,37.60
2022-08-07T08:04:28.886Z,37.76
2022-08-07T08:06:56.532Z,37.59
2022-08-07T08:09:30.029Z,37.54
2022-08-07T08:12:02.487Z,37.98
2022-08-07T08:14:34.151Z,36.74
2022-08-07T08:17:55.676Z,37.54
2022-08-07T08:20:17.175Z,38.47
2022-08-07T08:23:03.557Z,38.12
2022-08-07T08:25:56.719Z,37.67
2022-08-07T08:28:38.703Z,37.26
2022-08-07T08:31:14.594Z,37.23
2022-08-07T08:33:49.613Z,37.09
2022-08-07T08:36:25.570Z,36.69
2022-08-07T08:39:01.884Z,36.32
2022-08-07T08:41:58.386Z,36.03
2022-08-07T08:44:44.379Z,35.84
2022-08-07T08:47:47.341Z,35.52
2022-08-07T08:50:39.172Z,35.49
2022-08-07T08:53:33.833Z,35.39
2022-08-07T08:56:10.874Z,35.60
2022-08-07T08:59:00.193Z,35.51
2022-08-07T09:01:58.336Z,35.37
2022-08-07T09:04:51.266Z,35.14
2022-08-07T09:07:46.142Z,35.04
2022-08-07T09:10:29.931Z,34.83
2022-08-07T09:13:11.049Z,34.46
2022-08-07T09:16:21.760Z,33.90
2022-08-07T09:19:53.218Z,33.62
2022-08-07T09:24:33.017Z,33.27
2022-08-07T09:25:54.629Z,32.89
2022-08-07T09:30:05.238Z,32.51
2022-08-07T09:32:17.259Z,32.34
2022-08-07T09:36:05.384Z,32.06
2022-08-07T09:38:31.766Z,31.88
2022-08-07T09:41:24.373Z,31.61
2022-08-07T09:44:19.324Z,31.40
2022-08-07T09:48:00.441Z,31.50
2022-08-07T09:50:44.088Z,31.64
2022-08-07T09:53:13.234Z,31.46
2022-08-07T09:56:03.817Z,31.44
2022-08-07T09:59:07.758Z,31.43
2022-08-07T10:02:14.864Z,31.54
2022-08-07T10:05:00.699Z,31.65
2022-08-07T10:07:55.063Z,31.51
2022-08-07T10:11:07.726Z,31.59
2022-08-07T10:14:02.873Z,31.74
2022-08-07T10:16:59.564Z,31.78
2022-08-07T10:19:49.443Z,31.89
2022-08-07T10:22:36.795Z,31.67
2022-08-07T10:25:43.136Z,31.21
2022-08-07T10:28:34.223Z,31.19
2022-08-07T10:31:35.856Z,30.92
2022-08-07T10:34:33.888Z,31.06
2022-08-07T10:37:14.622Z,31.11
2022-08-07T10:40:12.660Z,31.17
2022-08-07T10:43:07.607Z,31.22
2022-08-07T10:45:44.731Z,30.99
2022-08-07T10:48:36.475Z,31.14
2022-08-07T10:51:16.867Z,31.27
2022-08-07T10:54:19.960Z,31.25
2022-08-07T10:57:16.922Z,31.13
2022-08-07T11:00:36.154Z,31.07
2022-08-07T11:03:24.027Z,31.16
2022-08-07T11:06:42.239Z,30.96
2022-08-07T11:10:09.964Z,30.91
2022-08-07T11:12:31.693Z,31.08
2022-08-07T11:15:09.604Z,31.03
2022-08-07T11:18:03.698Z,31.22
2022-08-07T11:20:43.473Z,31.38
2022-08-07T11:23:48.340Z,31.52
2022-08-07T11:26:33.992Z,31.60
2022-08-07T11:29:13.264Z,31.27
2022-08-07T11:31:58.684Z,31.25
2022-08-07T11:34:52.591Z,31.41
2022-08-07T11:37:58.088Z,31.21
2022-08-07T11:40:53.086Z,31.16
2022-08-07T11:43:54.535Z,30.95
2022-08-07T11:50:18.678Z,31.08
2022-08-07T11:52:57.768Z,31.37
2022-08-07T11:56:09.081Z,31.85
2022-08-07T12:00:08.973Z,31.58
2022-08-07T12:02:37.684Z,31.80
2022-08-07T12:05:28.251Z,31.86
2022-08-07T12:08:05.621Z,31.67
2022-08-07T12:11:08.145Z,31.66
2022-08-07T12:13:58.433Z,31.71
2022-08-07T12:16:30.841Z,31.95
2022-08-07T12:19:14.700Z,32.02
2022-08-07T12:22:39.608Z,31.37
2022-08-07T12:26:22.362Z,31.21
2022-08-07T12:28:44.879Z,31.26
2022-08-07T12:31:23.514Z,31.23
2022-08-07T12:33:56.147Z,31.15
2022-08-07T12:36:33.497Z,30.97
2022-08-07T12:39:09.390Z,31.23
2022-08-07T12:41:59.811Z,31.41
2022-08-07T12:44:30.619Z,31.66
2022-08-07T12:47:06.506Z,31.80
2022-08-07T12:49:51.422Z,31.68
2022-08-07T12:52:47.914Z,31.59
2022-08-07T12:55:41.442Z,31.43
2022-08-07T12:58:22.149Z,31.69
2022-08-07T13:01:23.166Z,31.63
2022-08-07T13:04:36.937Z,31.71
2022-08-07T13:08:12.512Z,31.59
2022-08-07T13:10:43.837Z,32.03
2022-08-07T13:14:03.568Z,32.47
2022-08-07T13:16:41.281Z,32.42
2022-08-07T13:19:11.412Z,32.26
2022-08-07T13:22:34.793Z,31.99
2022-08-07T13:25:09.480Z,31.67
2022-08-07T13:28:12.514Z,31.62
2022-08-07T13:30:52.172Z,31.65
2022-08-07T13:34:34.583Z,31.56
2022-08-07T13:36:47.954Z,31.54
2022-08-07T13:40:33.320Z,31.46
2022-08-07T13:42:25.065Z,31.56
2022-08-07T13:45:40.592Z,31.51
2022-08-07T13:48:06.286Z,31.30
2022-08-07T13:50:44.455Z,31.25
2022-08-07T13:53:24.014Z,31.14
2022-08-07T13:55:54.644Z,31.00
2022-08-07T13:58:56.374Z,30.82
2022-08-07T14:01:26.617Z,30.67
2022-08-07T14:04:07.174Z,30.69
2022-08-07T14:06:43.693Z,30.64
2022-08-07T14:10:03.102Z,30.55
2022-08-07T14:12:29.964Z,30.58
2022-08-07T14:15:10.156Z,30.51
2022-08-07T14:18:23.567Z,30.56
2022-08-07T14:20:43.775Z,30.53
2022-08-07T14:23:31.639Z,30.54
2022-08-07T14:26:28.142Z,30.64
2022-08-07T14:29:02.022Z,30.79
2022-08-07T14:31:43.459Z,30.92
2022-08-07T14:34:29.517Z,30.99
2022-08-07T14:37:02.029Z,30.91
2022-08-07T14:40:16.664Z,30.87
2022-08-07T14:45:21.795Z,30.77
2022-08-07T14:47:52.923Z,30.67
2022-08-07T14:50:28.159Z,30.58
2022-08-07T14:53:07.489Z,30.60
2022-08-07T14:55:39.323Z,30.64
2022-08-07T14:58:30.025Z,30.68
2022-08-07T15:00:59.491Z,30.77
2022-08-07T15:03:51.411Z,30.68
2022-08-07T15:06:25.792Z,30.61
2022-08-07T15:08:56.010Z,30.56
2022-08-07T15:11:53.227Z,30.48
2022-08-07T15:14:25.438Z,30.44
2022-08-07T15:20:31.053Z,30.47
2022-08-07T15:22:51.571Z,30.23
2022-08-07T15:25:36.522Z,30.15
2022-08-07T15:28:34.199Z,30.08
2022-08-07T15:31:05.256Z,30.06
2022-08-07T15:33:35.978Z,30.07
2022-08-07T15:36:07.890Z,30.01
2022-08-07T15:38:58.684Z,30.07
2022-08-07T15:42:46.784Z,30.08
2022-08-07T15:44:21.320Z,30.21
2022-08-07T15:52:51.761Z,30.28
2022-08-07T15:55:23.188Z,30.27
2022-08-07T15:57:53.574Z,30.12
2022-08-07T16:00:34.762Z,30.11
2022-08-07T16:03:21.361Z,29.99
2022-08-07T16:05:52.932Z,30.04
2022-08-07T16:08:31.422Z,30.07
2022-08-07T16:11:27.204Z,30.01
2022-08-07T16:14:03.162Z,29.81
2022-08-07T16:16:47.924Z,29.68
2022-08-07T16:19:42.136Z,29.59
2022-08-07T16:22:30.177Z,29.43
2022-08-07T16:25:22.742Z,29.34
2022-08-07T16:30:05.490Z,29.36
2022-08-07T16:32:03.819Z,29.33
2022-08-07T16:34:48.443Z,29.27
2022-08-07T16:38:06.318Z,29.21
2022-08-07T16:40:32.194Z,29.25
2022-08-07T16:44:06.157Z,29.27
2022-08-07T16:47:04.852Z,29.24
2022-08-07T16:50:27.839Z,29.20
2022-08-07T16:52:57.593Z,29.19
2022-08-07T16:55:51.126Z,29.29
2022-08-07T16:59:02.287Z,29.26
2022-08-07T17:01:41.222Z,29.15
2022-08-07T17:04:58.083Z,29.09
2022-08-07T17:07:55.398Z,29.11
2022-08-07T17:10:54.396Z,29.14
2022-08-07T17:13:41.577Z,29.12
2022-08-07T17:16:39.900Z,28.98
2022-08-07T17:20:01.095Z,28.91
2022-08-07T17:22:37.971Z,28.82
2022-08-07T17:25:47.664Z,28.77
2022-08-07T17:28:20.202Z,28.71
2022-08-07T17:31:16.137Z,28.71
2022-08-07T17:34:15.341Z,28.70
2022-08-07T17:37:00.024Z,28.72
2022-08-07T17:40:03.106Z,28.73
2022-08-07T17:42:59.342Z,28.78
2022-08-07T17:45:34.886Z,28.80
2022-08-07T17:48:08.668Z,28.86
2022-08-07T17:50:58.363Z,28.87
2022-08-07T17:54:00.520Z,28.90
2022-08-07T17:56:35.080Z,28.93
2022-08-07T17:59:16.968Z,28.98
2022-08-07T18:01:56.755Z,29.01
2022-08-07T18:04:49.348Z,29.08
2022-08-07T18:07:43.669Z,29.16
2022-08-07T18:10:29.027Z,29.17
2022-08-07T18:13:11.099Z,29.16
2022-08-07T18:15:58.817Z,29.16
2022-08-07T18:21:03.976Z,29.15
2022-08-07T18:22:00.393Z,29.14
2022-08-07T18:24:53.517Z,29.15
2022-08-07T18:27:39.340Z,29.14
2022-08-07T18:30:31.502Z,29.16
2022-08-07T18:33:29.435Z,29.20
2022-08-07T18:36:32.821Z,29.16
2022-08-07T18:40:08.172Z,29.05
2022-08-07T18:42:27.536Z,28.92
2022-08-07T18:45:43.813Z,28.85
2022-08-07T18:50:04.739Z,28.78
2022-08-07T18:51:14.886Z,28.77
2022-08-07T18:54:30.538Z,28.71
2022-08-07T18:57:40.095Z,28.70
2022-08-07T19:00:33.342Z,28.69
2022-08-07T19:03:17.419Z,28.65
2022-08-07T19:06:03.251Z,28.60
2022-08-07T19:08:58.884Z,28.61
2022-08-07T19:12:04.042Z,28.60
2022-08-07T19:15:03.180Z,28.57
2022-08-07T19:18:05.242Z,28.54
2022-08-07T19:21:08.931Z,28.62
2022-08-07T19:23:57.900Z,28.62
2022-08-07T19:27:09.240Z,28.62
2022-08-07T19:31:00.764Z,28.63
2022-08-07T19:32:26.442Z,28.59
2022-08-07T19:35:01.676Z,28.56
2022-08-07T19:37:55.672Z,28.53
2022-08-07T19:40:31.505Z,28.49
2022-08-07T19:43:10.744Z,28.47
2022-08-07T19:46:07.498Z,28.45
2022-08-07T19:48:53.545Z,28.47
2022-08-07T19:51:52.902Z,28.49
2022-08-07T19:54:34.189Z,28.49
2022-08-07T19:58:03.121Z,28.49
2022-08-07T20:00:01.961Z,28.48
2022-08-07T20:02:51.920Z,28.53
2022-08-07T20:05:27.901Z,28.57
2022-08-07T20:08:02.407Z,28.58
2022-08-07T20:10:55.440Z,28.62
2022-08-07T20:13:31.957Z,28.64
2022-08-07T20:16:03.123Z,28.70
2022-08-07T20:18:34.647Z,28.72
2022-08-07T20:21:21.023Z,28.78
2022-08-07T20:23:57.915Z,28.79
2022-08-07T20:26:45.283Z,28.82
2022-08-07T20:29:48.374Z,28.80
2022-08-07T20:32:22.259Z,28.78
2022-08-07T20:34:54.902Z,28.74
2022-08-07T20:37:25.640Z,28.69
2022-08-07T20:40:03.769Z,28.64
2022-08-07T20:42:35.220Z,28.59
2022-08-07T20:45:32.874Z,28.56
2022-08-07T20:47:57.784Z,28.54
2022-08-07T20:50:30.517Z,28.50
2022-08-07T20:52:58.763Z,28.50
2022-08-07T20:55:26.503Z,28.46
2022-08-07T20:58:03.482Z,28.41
2022-08-07T21:00:42.980Z,28.40
2022-08-07T21:03:16.402Z,28.34
2022-08-07T21:05:54.501Z,28.31
2022-08-07T21:08:36.968Z,28.28
2022-08-07T21:11:11.771Z,28.26
2022-08-07T21:14:16.269Z,28.26
2022-08-07T21:17:06.856Z,28.24
2022-08-07T21:19:51.837Z,28.26
2022-08-07T21:22:34.791Z,28.25
2022-08-07T21:25:23.371Z,28.24
2022-08-07T21:28:16.779Z,28.23
2022-08-07T21:31:49.264Z,28.26
2022-08-07T21:34:26.658Z,28.28
2022-08-07T21:37:04.060Z,28.28
2022-08-07T21:39:48.600Z,28.27
2022-08-07T21:42:48.649Z,28.20
2022-08-07T21:46:09.179Z,28.13
2022-08-07T21:48:43.803Z,28.10
2022-08-07T21:51:32.221Z,28.05
2022-08-07T21:54:10.078Z,28.03
2022-08-07T21:57:00.267Z,27.99
2022-08-07T22:00:02.616Z,27.98
2022-08-07T22:02:41.654Z,27.96
2022-08-07T22:05:43.844Z,27.96
2022-08-07T22:08:06.048Z,27.96
2022-08-07T22:10:42.276Z,27.98
2022-08-07T22:13:14.481Z,27.96
2022-08-07T22:16:45.110Z,27.93
2022-08-07T22:18:58.816Z,28.23
2022-08-07T22:22:04.560Z,28.28
2022-08-07T22:24:43.570Z,28.20
2022-08-07T22:27:21.158Z,28.16
2022-08-07T22:30:12.404Z,28.13
2022-08-07T22:33:02.881Z,28.12
2022-08-07T22:35:42.835Z,28.09
2022-08-07T22:38:37.925Z,28.05
2022-08-07T22:42:04.175Z,28.04
2022-08-07T22:44:25.176Z,28.02
2022-08-07T22:47:16.722Z,27.97
2022-08-07T22:50:03.434Z,27.93
2022-08-07T22:52:59.037Z,27.89
2022-08-07T22:56:04.447Z,27.86
2022-08-07T22:59:18.419Z,27.81
2022-08-07T23:02:16.541Z,27.78
2022-08-07T23:06:10.153Z,27.73
2022-08-07T23:08:24.240Z,27.68
2022-08-07T23:11:13.002Z,27.64
2022-08-07T23:14:16.434Z,27.58
2022-08-07T23:16:58.934Z,27.49
2022-08-07T23:20:07.648Z,27.46
2022-08-07T23:22:53.640Z,27.44
2022-08-07T23:25:28.287Z,27.42
2022-08-07T23:28:21.192Z,27.35
2022-08-07T23:31:11.284Z,27.30
2022-08-07T23:34:36.301Z,27.27
2022-08-07T23:36:54.824Z,27.22
2022-08-07T23:39:55.377Z,27.25
2022-08-07T23:42:40.899Z,27.24
2022-08-07T23:45:33.466Z,27.23
2022-08-07T23:48:21.582Z,27.26
2022-08-07T23:51:03.746Z,27.25
2022-08-07T23:53:53.684Z,27.24
2022-08-07T23:56:34.934Z,27.24
